Time;durP1;ratioP1;P1;durP2;ratioP2;P2;SDS_P1;SDS_P2;PMS_P1;PMS_P2;Temp;Humidity;BMP_temperature;BMP_pressure;BME280_temperature;BME280_humidity;BME280_pressure;Samples;Min_cycle;Max_cycle;Signal;HPM_P1;HPM_P2
2022/04/21 00:00:11;;;;;;;;;;;;;;;20.22;43.51;100907.25;5122106;28;2771;-59
2022/04/21 00:02:38;;;;;;;;;;;;;;;20.22;43.64;100906.50;5121914;28;2577;-59
2022/04/21 00:05:04;;;;;;;;;;;;;;;20.26;43.42;100906.72;5122563;28;2476;-59
2022/04/21 00:07:31;;;;;;;;;;;;;;;20.26;43.40;100900.97;5122468;28;2333;-59
2022/04/21 00:09:57;;;;;;;;;;;;;;;20.21;43.62;100899.28;5122330;28;2474;-59
2022/04/21 00:12:24;;;;;;;;;;;;;;;20.19;43.67;100894.19;5126197;28;2481;-59
2022/04/21 00:14:50;;;;;;;;;;;;;;;20.19;43.51;100908.56;5118894;28;3250;-59
2022/04/21 00:17:16;;;;;;;;;;;;;;;20.18;43.66;100894.81;5123112;28;2572;-59
2022/04/21 00:19:43;;;;;;;;;;;;;;;20.19;43.54;100897.06;5122760;28;2541;-59
2022/04/21 00:24:54;;;;;;;;;;;;;;;20.18;43.60;100901.31;5124056;28;2553;-59
2022/04/21 00:27:21;;;;;;;;;;;;;;;20.18;43.54;100903.44;5125577;28;2546;-59
2022/04/21 00:29:47;;;;;;;;;;;;;;;20.19;43.54;100902.06;5123545;28;2650;-59
2022/04/21 00:32:13;;;;;;;;;;;;;;;20.18;43.52;100907.06;5122037;28;2515;-59
2022/04/21 00:34:40;;;;;;;;;;;;;;;20.18;43.47;100906.31;5124723;28;2528;-58
2022/04/21 00:37:06;;;;;;;;;;;;;;;20.18;43.64;100906.31;5122651;28;2537;-59
2022/04/21 00:39:33;;;;;;;;;;;;;;;20.18;43.52;100897.69;5123685;28;2524;-59
2022/04/21 00:42:01;;;;;;;;;;;;;;;20.17;43.54;100899.09;5127232;28;1665;-59
2022/04/21 00:44:27;;;;;;;;;;;;;;;20.16;43.66;100903.34;5122133;28;2536;-58
2022/04/21 00:46:54;;;;;;;;;;;;;;;20.17;43.56;100905.56;5119087;28;2659;-59
2022/04/21 00:49:21;;;;;;;;;;;;;;;20.16;43.45;100903.34;5121557;28;2501;-59
2022/04/21 00:51:48;;;;;;;;;;;;;;;20.21;43.43;100899.28;5124400;28;2723;-59
2022/04/21 00:54:14;;;;;;;;;;;;;;;20.21;43.48;100893.53;5107944;28;1715;-59
2022/04/21 00:56:41;;;;;;;;;;;;;;;20.17;43.53;100901.97;5123971;28;2362;-59
2022/04/21 00:59:07;;;;;;;;;;;;;;;20.21;43.40;100890.66;5120055;28;2572;-59
2022/04/21 01:04:19;;;;;;;;;;;;;;;20.14;43.58;100894.63;5125853;27;2645;-59
2022/04/21 01:06:45;;;;;;;;;;;;;;;20.14;43.55;100894.63;5109519;27;1572;-59
2022/04/21 01:09:12;;;;;;;;;;;;;;;20.13;43.50;100890.28;5126921;27;2434;-59
2022/04/21 01:11:38;;;;;;;;;;;;;;;20.13;43.53;100893.13;5127050;27;3287;-60
2022/04/21 01:14:04;;;;;;;;;;;;;;;20.12;43.51;100891.66;5126435;27;3271;-60
2022/04/21 01:16:31;;;;;;;;;;;;;;;20.12;43.50;100880.16;5128933;27;1582;-59
2022/04/21 01:18:57;;;;;;;;;;;;;;;20.11;43.53;100878.66;5126515;27;2655;-59
2022/04/21 01:21:24;;;;;;;;;;;;;;;20.11;43.59;100867.16;5129540;27;2434;-59
2022/04/21 01:23:50;;;;;;;;;;;;;;;20.09;43.69;100859.94;5129432;27;2576;-60
2022/04/21 01:26:17;;;;;;;;;;;;;;;20.13;43.39;100853.63;5123861;27;3370;-59
2022/04/21 01:28:45;;;;;;;;;;;;;;;20.16;43.46;100857.34;5098503;27;2838;-60
2022/04/21 01:31:12;;;;;;;;;;;;;;;20.14;43.38;100855.13;5098721;27;3556;-60
2022/04/21 01:33:38;;;;;;;;;;;;;;;20.15;43.40;100847.97;5126130;27;2759;-60
2022/04/21 01:36:05;;;;;;;;;;;;;;;20.15;43.40;100844.38;5126545;27;2864;-60
2022/04/21 01:41:16;;;;;;;;;;;;;;;20.08;43.48;100852.69;5129569;27;1687;-60
2022/04/21 01:43:43;;;;;;;;;;;;;;;20.06;43.56;100854.72;5129184;27;2912;-60
2022/04/21 01:46:10;;;;;;;;;;;;;;;20.06;43.48;100849.72;5128510;27;2739;-59
2022/04/21 01:48:37;;;;;;;;;;;;;;;20.05;43.52;100851.13;5128019;27;2983;-59
2022/04/21 01:51:03;;;;;;;;;;;;;;;20.06;43.44;100854.72;5128547;27;2482;-59
2022/04/21 01:53:29;;;;;;;;;;;;;;;20.05;43.56;100861.88;5127251;27;1733;-59
2022/04/21 01:55:56;;;;;;;;;;;;;;;20.05;43.60;100864.75;5126141;27;2918;-60
2022/04/21 01:58:22;;;;;;;;;;;;;;;20.05;43.57;100871.25;5121830;27;2801;-60
2022/04/21 02:00:48;;;;;;;;;;;;;;;20.06;43.51;100866.22;5123107;27;3640;-60
2022/04/21 02:03:15;;;;;;;;;;;;;;;20.04;43.54;100864.03;5124711;27;3459;-59
2022/04/21 02:05:41;;;;;;;;;;;;;;;20.04;43.49;100866.91;5127950;27;2873;-60
2022/04/21 02:08:08;;;;;;;;;;;;;;;20.04;43.48;100858.28;5127990;27;2615;-59
2022/04/21 02:10:34;;;;;;;;;;;;;;;20.04;43.53;100852.53;5128550;27;2580;-60
2022/04/21 02:13:00;;;;;;;;;;;;;;;20.02;43.57;100843.81;5124573;27;2882;-59
2022/04/21 02:15:27;;;;;;;;;;;;;;;20.02;43.51;100846.69;5127292;27;1647;-60
2022/04/21 02:17:53;;;;;;;;;;;;;;;20.02;43.56;100846.69;5128430;27;2798;-60
2022/04/21 02:20:20;;;;;;;;;;;;;;;20.01;43.51;100842.31;5127190;27;2936;-60
2022/04/21 02:22:47;;;;;;;;;;;;;;;20.01;43.65;100841.56;5127101;27;2841;-60
2022/04/21 02:25:16;;;;;;;;;;;;;;;20.01;43.48;100839.44;5128544;27;1619;-59
2022/04/21 02:27:43;;;;;;;;;;;;;;;20.02;43.50;100837.28;5126904;27;2545;-59
2022/04/21 02:30:10;;;;;;;;;;;;;;;20.01;43.50;100835.81;5127149;27;2398;-59
2022/04/21 02:32:36;;;;;;;;;;;;;;;20.00;43.50;100846.56;5127570;27;2546;-59
2022/04/21 02:35:03;;;;;;;;;;;;;;;20.01;43.44;100830.81;5127368;27;2387;-59
2022/04/21 02:37:39;;;;;;;;;;;;;;;20.00;43.53;100837.97;5127803;27;2394;-59
2022/04/21 02:40:05;;;;;;;;;;;;;;;20.01;43.43;100833.69;5128806;27;2958;-59
2022/04/21 02:42:32;;;;;;;;;;;;;;;20.04;43.39;100840.25;5125218;27;2567;-59
2022/04/21 02:44:58;;;;;;;;;;;;;;;20.05;43.37;100836.75;5126019;27;2559;-59
2022/04/21 02:47:25;;;;;;;;;;;;;;;20.05;43.38;100836.75;5127857;27;2556;-59
2022/04/21 02:49:51;;;;;;;;;;;;;;;20.06;43.47;100832.47;5128215;27;1710;-59
2022/04/21 02:52:17;;;;;;;;;;;;;;;20.05;43.49;100825.25;5127148;27;2521;-59
2022/04/21 02:57:30;;;;;;;;;;;;;;;20.03;43.55;100816.53;5124659;27;2572;-59
2022/04/21 02:59:57;;;;;;;;;;;;;;;20.04;43.50;100818.03;5109214;27;2422;-59
2022/04/21 03:02:23;;;;;;;;;;;;;;;20.05;43.56;100805.13;5108372;27;2562;-60
2022/04/21 03:04:51;;;;;;;;;;;;;;;20.05;43.47;100819.50;5126188;27;2525;-59
2022/04/21 03:07:17;;;;;;;;;;;;;;;20.07;43.49;100816.00;5127739;27;2636;-59
2022/04/21 03:09:44;;;;;;;;;;;;;;;20.05;43.48;100822.38;5126687;27;2572;-59
2022/04/21 03:12:10;;;;;;;;;;;;;;;20.05;43.62;100810.88;5125487;27;2625;-59
2022/04/21 03:14:37;;;;;;;;;;;;;;;20.05;43.50;100825.25;5126793;27;2283;-59
2022/04/21 03:17:06;;;;;;;;;;;;;;;20.05;43.54;100830.25;5127913;27;1851;-59
2022/04/21 03:19:33;;;;;;;;;;;;;;;20.05;43.61;100836.00;5126093;27;2627;-59
2022/04/21 03:24:45;;;;;;;;;;;;;;;20.08;43.46;100838.31;5127281;27;2512;-59
2022/04/21 03:27:12;;;;;;;;;;;;;;;20.12;43.42;100839.91;5125863;27;2576;-59
2022/04/21 03:29:38;;;;;;;;;;;;;;;20.09;43.56;100830.47;5125502;27;2717;-59
2022/04/21 03:32:09;;;;;;;;;;;;;;;20.08;43.54;100826.81;5127567;27;2344;-59
2022/04/21 03:34:37;;;;;;;;;;;;;;;20.08;43.59;100823.94;5126194;27;2530;-59
2022/04/21 03:37:03;;;;;;;;;;;;;;;20.08;43.48;100823.22;5127513;27;2425;-59
2022/04/21 03:39:30;;;;;;;;;;;;;;;20.09;43.54;100818.97;5127198;27;1772;-59
2022/04/21 03:41:56;;;;;;;;;;;;;;;20.11;43.49;100826.91;5126271;27;2659;-59
2022/04/21 03:44:23;;;;;;;;;;;;;;;20.09;43.43;100831.19;5127182;27;2331;-59
2022/04/21 03:46:49;;;;;;;;;;;;;;;20.09;43.37;100831.19;5126691;27;2502;-59
2022/04/21 03:49:16;;;;;;;;;;;;;;;20.10;43.51;100831.94;5125682;27;2568;-59
2022/04/21 03:51:42;;;;;;;;;;;;;;;20.10;43.54;100826.19;5125752;27;2516;-59
2022/04/21 03:54:08;;;;;;;;;;;;;;;20.11;43.56;100826.91;5126439;27;2425;-59
2022/04/21 03:56:35;;;;;;;;;;;;;;;20.11;43.53;100832.66;5127213;27;2711;-59
2022/04/21 03:59:01;;;;;;;;;;;;;;;20.13;43.50;100841.41;5127475;27;2572;-59
2022/04/21 04:01:27;;;;;;;;;;;;;;;20.11;43.61;100842.03;5125463;27;2588;-59
2022/04/21 04:03:54;;;;;;;;;;;;;;;20.13;43.49;100842.13;5125657;27;2685;-59
2022/04/21 04:11:51;;;;;;;;;;;;;;;20.13;43.54;100847.16;5126028;28;2469;-59
2022/04/21 04:14:17;;;;;;;;;;;;;;;20.15;43.55;100841.50;5124637;28;2513;-59
2022/04/21 04:16:44;;;;;;;;;;;;;;;20.13;43.39;100842.13;5126147;28;2390;-59
2022/04/21 04:19:11;;;;;;;;;;;;;;;20.14;43.53;100845.78;5126589;28;1654;-59
2022/04/21 04:21:37;;;;;;;;;;;;;;;20.15;43.47;100850.13;5124043;28;2675;-59
2022/04/21 04:24:04;;;;;;;;;;;;;;;20.15;43.47;100850.13;5123495;28;2632;-59
2022/04/21 04:26:30;;;;;;;;;;;;;;;20.15;43.49;100850.84;5124467;28;2509;-59
2022/04/21 04:28:57;;;;;;;;;;;;;;;20.14;43.54;100851.53;5127103;28;2410;-59
2022/04/21 04:31:23;;;;;;;;;;;;;;;20.16;43.53;100852.34;5125873;28;2410;-59
2022/04/21 04:33:50;;;;;;;;;;;;;;;20.16;43.54;100860.97;5126138;28;2472;-60
2022/04/21 04:36:16;;;;;;;;;;;;;;;20.17;43.47;100864.59;5125148;28;2363;-60
2022/04/21 04:38:43;;;;;;;;;;;;;;;20.17;43.48;100864.59;5129495;27;2731;-59
2022/04/21 04:43:55;;;;;;;;;;;;;;;20.18;43.51;100871.81;5129226;27;2608;-59
2022/04/21 04:46:40;;;;;;;;;;;;;;;20.19;43.49;100873.31;5129590;27;2438;-59
2022/04/21 04:49:09;;;;;;;;;;;;;;;20.19;43.47;100867.56;5129879;27;2494;-59
2022/04/21 04:51:38;;;;;;;;;;;;;;;20.19;43.45;100867.56;5128372;27;2756;-59
2022/04/21 04:54:07;;;;;;;;;;;;;;;20.19;43.43;100867.56;5128962;27;2523;-59
2022/04/21 04:56:35;;;;;;;;;;;;;;;20.20;43.45;100869.03;5131500;27;1585;-59
2022/04/21 04:59:02;;;;;;;;;;;;;;;20.20;43.47;100877.66;5129601;27;2558;-59
2022/04/21 05:01:29;;;;;;;;;;;;;;;20.18;43.55;100866.06;5129912;27;2201;-59
2022/04/21 05:04:05;;;;;;;;;;;;;;;20.18;43.48;100883.31;5129060;27;2117;-60
2022/04/21 05:06:35;;;;;;;;;;;;;;;20.20;43.56;100886.28;5129024;27;1907;-59
2022/04/21 05:09:02;;;;;;;;;;;;;;;20.19;43.47;100884.81;5129558;27;2521;-59
2022/04/21 05:11:28;;;;;;;;;;;;;;;20.19;43.46;100876.94;5128338;27;2498;-59
2022/04/21 05:13:55;;;;;;;;;;;;;;;20.22;43.39;100890.00;5131015;27;2351;-59
2022/04/21 05:16:21;;;;;;;;;;;;;;;20.20;43.46;100878.44;5129104;27;2583;-59
2022/04/21 05:18:48;;;;;;;;;;;;;;;20.22;43.42;100878.50;5128979;27;2375;-59
2022/04/21 05:21:16;;;;;;;;;;;;;;;20.23;43.40;100879.25;5129834;27;1699;-59
2022/04/21 05:23:42;;;;;;;;;;;;;;;20.20;43.53;100886.28;5128023;27;2803;-59
2022/04/21 05:26:09;;;;;;;;;;;;;;;20.21;43.43;100893.53;5128404;27;2513;-59
2022/04/21 05:28:35;;;;;;;;;;;;;;;20.23;43.46;100893.63;5129895;27;2291;-59
2022/04/21 05:31:07;;;;;;;;;;;;;;;20.23;43.45;100885.75;5130022;27;2600;-59
2022/04/21 05:33:35;;;;;;;;;;;;;;;20.21;43.50;100885.66;5129438;27;2030;-59
2022/04/21 05:36:01;;;;;;;;;;;;;;;20.21;43.46;100894.28;5129563;27;2521;-59
2022/04/21 05:38:28;;;;;;;;;;;;;;;20.23;43.47;100890.75;5128478;27;2687;-59
2022/04/21 05:40:55;;;;;;;;;;;;;;;20.22;43.48;100890.00;5109460;27;2538;-59
2022/04/21 05:43:21;;;;;;;;;;;;;;;20.27;43.60;100882.31;5129743;27;1815;-59
2022/04/21 05:45:48;;;;;;;;;;;;;;;20.30;43.37;100889.66;5130241;27;3074;-59
2022/04/21 05:48:15;;;;;;;;;;;;;;;20.30;43.34;100878.16;5128664;27;2398;-59
2022/04/21 05:50:44;;;;;;;;;;;;;;;20.31;43.36;100873.88;5127372;27;1998;-59
2022/04/21 05:53:10;;;;;;;;;;;;;;;20.32;43.17;100863.88;5127386;27;2612;-60
2022/04/21 05:55:37;;;;;;;;;;;;;;;20.31;43.24;100868.13;5129034;27;2283;-59
2022/04/21 05:58:03;;;;;;;;;;;;;;;20.29;43.27;100871.66;5128797;27;1971;-60
2022/04/21 06:00:30;;;;;;;;;;;;;;;20.31;43.27;100856.63;5128455;27;2336;-59
2022/04/21 06:02:56;;;;;;;;;;;;;;;20.27;43.43;100870.81;5128943;27;2486;-59
2022/04/21 06:05:22;;;;;;;;;;;;;;;20.30;43.33;100867.38;5126681;27;2540;-59
2022/04/21 06:07:49;;;;;;;;;;;;;;;20.33;43.31;100871.09;5129242;27;1859;-59
2022/04/21 06:10:15;;;;;;;;;;;;;;;20.32;43.28;100863.13;5127968;27;2555;-59
2022/04/21 06:12:42;;;;;;;;;;;;;;;20.29;43.31;100860.16;5129622;27;2299;-59
2022/04/21 06:15:09;;;;;;;;;;;;;;;20.26;43.36;100852.09;5127870;27;2686;-59
2022/04/21 06:17:35;;;;;;;;;;;;;;;20.25;43.52;100859.22;5128951;27;2484;-59
2022/04/21 06:20:01;;;;;;;;;;;;;;;20.22;43.52;100852.63;5129082;27;1660;-59
2022/04/21 06:22:28;;;;;;;;;;;;;;;20.25;43.57;100847.72;5127962;27;2581;-59
2022/04/21 06:24:54;;;;;;;;;;;;;;;20.24;43.41;100846.97;5126546;27;2466;-59
2022/04/21 06:27:21;;;;;;;;;;;;;;;20.26;43.39;100844.19;5129003;27;2491;-59
2022/04/21 06:29:47;;;;;;;;;;;;;;;20.27;43.44;100842.06;5127415;27;2476;-59
2022/04/21 06:32:13;;;;;;;;;;;;;;;20.27;43.44;100842.06;5129235;27;2426;-60
2022/04/21 06:34:40;;;;;;;;;;;;;;;20.26;43.47;100846.31;5128990;27;2352;-59
2022/04/21 06:37:06;;;;;;;;;;;;;;;20.26;43.37;100843.44;5128536;27;2501;-59
2022/04/21 06:39:33;;;;;;;;;;;;;;;20.26;43.41;100849.19;5123814;27;2709;-59
2022/04/21 06:42:00;;;;;;;;;;;;;;;20.27;43.41;100850.69;5128210;27;2439;-59
2022/04/21 06:49:56;;;;;;;;;;;;;;;20.28;43.42;100852.19;5128257;27;2584;-59
2022/04/21 06:52:22;;;;;;;;;;;;;;;20.27;43.38;100844.94;5128327;27;2535;-59
2022/04/21 06:54:49;;;;;;;;;;;;;;;20.29;43.38;100859.41;5126123;27;2515;-59
2022/04/21 06:57:15;;;;;;;;;;;;;;;20.28;43.43;100855.06;5127985;27;2453;-59
2022/04/21 06:59:42;;;;;;;;;;;;;;;20.27;43.49;100856.44;5127799;27;2702;-59
2022/04/21 07:02:09;;;;;;;;;;;;;;;20.29;43.41;100862.28;5126112;27;2570;-60
2022/04/21 07:04:36;;;;;;;;;;;;;;;20.28;43.46;100870.16;5126407;27;2237;-59
2022/04/21 07:07:02;;;;;;;;;;;;;;;20.30;43.39;100866.66;5128665;27;2624;-60
2022/04/21 07:09:28;;;;;;;;;;;;;;;20.29;43.42;100876.66;5125979;27;2522;-59
2022/04/21 07:11:55;;;;;;;;;;;;;;;20.29;43.40;100871.66;5126091;27;2382;-60
2022/04/21 07:14:22;;;;;;;;;;;;;;;20.30;43.44;100872.41;5126015;27;2462;-59
2022/04/21 07:16:48;;;;;;;;;;;;;;;20.29;43.40;100876.66;5125869;27;2625;-60
2022/04/21 07:19:14;;;;;;;;;;;;;;;20.29;43.40;100880.28;5127766;27;2399;-60
2022/04/21 07:21:41;;;;;;;;;;;;;;;20.30;43.42;100883.91;5126720;27;1632;-59
2022/04/21 07:24:07;;;;;;;;;;;;;;;20.31;43.42;100882.50;5127273;27;2568;-60
2022/04/21 07:26:33;;;;;;;;;;;;;;;20.31;43.38;100888.25;5124928;27;2672;-60
2022/04/21 07:29:00;;;;;;;;;;;;;;;20.30;43.49;100883.91;5128118;27;2351;-59
2022/04/21 07:31:26;;;;;;;;;;;;;;;20.32;43.49;100889.00;5126379;27;2556;-59
2022/04/21 07:33:53;;;;;;;;;;;;;;;20.30;43.41;100890.41;5127705;27;2441;-61
2022/04/21 07:36:22;;;;;;;;;;;;;;;20.33;43.35;100887.63;5126795;27;2412;-60
2022/04/21 07:38:49;;;;;;;;;;;;;;;20.30;43.39;100895.41;5126585;27;2287;-60
2022/04/21 07:41:15;;;;;;;;;;;;;;;20.33;43.37;100893.38;5125248;27;2639;-59
2022/04/21 07:43:44;;;;;;;;;;;;;;;20.32;43.45;100892.63;5123715;27;2525;-60
2022/04/21 07:46:10;;;;;;;;;;;;;;;20.32;43.46;100892.63;5121759;27;3347;-60
2022/04/21 07:51:22;;;;;;;;;;;;;;;20.32;43.44;100892.63;5125783;27;2334;-60
2022/04/21 07:53:48;;;;;;;;;;;;;;;20.34;43.39;100891.97;5126862;27;2130;-60
2022/04/21 07:56:16;;;;;;;;;;;;;;;20.35;43.47;100893.47;5123933;27;2565;-60
2022/04/21 07:58:44;;;;;;;;;;;;;;;20.34;43.48;100901.34;5128001;27;1728;-60
2022/04/21 08:01:12;;;;;;;;;;;;;;;20.35;43.59;100897.09;5125614;27;2710;-60
2022/04/21 08:03:38;;;;;;;;;;;;;;;20.34;43.37;100900.59;5108373;28;2470;-60
2022/04/21 08:06:05;;;;;;;;;;;;;;;20.35;43.43;100896.34;5122806;28;3383;-60
2022/04/21 08:08:32;;;;;;;;;;;;;;;20.34;43.32;100900.59;5114075;28;3447;-60
2022/04/21 08:10:59;;;;;;;;;;;;;;;20.33;43.40;100896.25;5121374;28;3655;-60
2022/04/21 08:13:28;;;;;;;;;;;;;;;20.33;43.47;100899.13;5124334;27;3409;-60
2022/04/21 08:15:54;;;;;;;;;;;;;;;20.34;43.32;100904.22;5131503;27;2335;-59
2022/04/21 08:18:21;;;;;;;;;;;;;;;20.34;43.25;100898.47;5126164;27;2640;-60
2022/04/21 08:20:48;;;;;;;;;;;;;;;20.33;43.35;100905.59;5128149;27;2399;-60
2022/04/21 08:23:14;;;;;;;;;;;;;;;20.35;43.40;100913.59;5129226;27;2683;-60
2022/04/21 08:34:22;;;;;;;;;;;;;;;20.35;43.28;100904.97;5129130;27;2676;-60
2022/04/21 08:36:52;;;;;;;;;;;;;;;20.39;43.24;100920.28;5129313;27;2528;-60
2022/04/21 08:39:19;;;;;;;;;;;;;;;20.33;43.53;100914.22;5126755;27;2656;-60
2022/04/21 08:41:47;;;;;;;;;;;;;;;20.29;43.89;100911.94;5128869;27;2422;-60
2022/04/21 08:44:16;;;;;;;;;;;;;;;20.36;44.12;100920.81;5108334;27;2235;-59
2022/04/21 08:46:42;;;;;;;;;;;;;;;20.41;43.98;100916.75;5126804;27;2659;-60
2022/04/21 08:49:08;;;;;;;;;;;;;;;20.58;43.68;100918.28;5128324;27;2884;-60
2022/04/21 08:51:35;;;;;;;;;;;;;;;20.51;43.99;100917.22;5110342;27;2324;-60
2022/04/21 08:54:02;;;;;;;;;;;;;;;20.34;44.10;100917.84;5126728;27;2863;-60
2022/04/21 08:56:29;;;;;;;;;;;;;;;20.46;43.83;100918.44;5123498;27;3382;-60
2022/04/21 08:58:55;;;;;;;;;;;;;;;20.37;44.11;100914.44;5127512;27;2603;-60
2022/04/21 09:01:22;;;;;;;;;;;;;;;20.62;43.67;100927.13;5125364;27;3387;-60
2022/04/21 09:03:48;;;;;;;;;;;;;;;20.40;44.13;100921.75;5130526;27;2557;-60
2022/04/21 09:06:15;;;;;;;;;;;;;;;20.50;44.05;100915.72;5119161;27;3379;-60
2022/04/21 09:08:41;;;;;;;;;;;;;;;20.52;43.90;100921.59;5119407;27;3878;-61
2022/04/21 09:11:08;;;;;;;;;;;;;;;20.29;44.01;100916.91;5126632;27;3193;-59
2022/04/21 09:13:41;;;;;;;;;;;;;;;20.16;43.82;100909.84;5127783;27;2362;-61
2022/04/21 09:16:08;;;;;;;;;;;;;;;19.69;43.82;100909.69;5124984;27;2616;-61
2022/04/21 09:18:38;;;;;;;;;;;;;;;19.29;44.28;100909.09;5128469;27;2575;-60
2022/04/21 09:21:11;;;;;;;;;;;;;;;19.46;44.03;100905.66;5128119;27;2691;-59
2022/04/21 09:23:38;;;;;;;;;;;;;;;19.52;43.82;100905.97;5128295;27;2477;-59
2022/04/21 09:26:05;;;;;;;;;;;;;;;19.67;43.55;100896.66;5125983;27;2609;-68
2022/04/21 09:28:32;;;;;;;;;;;;;;;19.82;43.38;100901.03;5128575;27;2367;-59
2022/04/21 09:31:00;;;;;;;;;;;;;;;19.89;43.84;100904.94;5130456;27;2298;-59
2022/04/21 09:33:27;;;;;;;;;;;;;;;19.93;43.95;100902.28;5127991;27;2667;-60
2022/04/21 09:35:57;;;;;;;;;;;;;;;19.99;44.12;100898.94;5128697;27;2608;-60
2022/04/21 09:38:23;;;;;;;;;;;;;;;20.02;44.14;100900.53;5128322;27;2331;-60
2022/04/21 09:40:49;;;;;;;;;;;;;;;20.06;44.01;100898.59;5129977;27;2577;-58
2022/04/21 09:43:28;;;;;;;;;;;;;;;20.06;44.16;100901.47;5125298;27;2311;-60
2022/04/21 09:46:10;;;;;;;;;;;;;;;20.08;44.28;100910.19;5129958;27;2568;-59
2022/04/21 09:48:37;;;;;;;;;;;;;;;20.12;44.12;100903.16;5112292;27;2617;-59
2022/04/21 09:51:13;;;;;;;;;;;;;;;20.13;44.04;100911.13;5128086;27;2635;-59
2022/04/21 09:53:53;;;;;;;;;;;;;;;20.16;44.09;100909.09;5128149;27;2930;-59
2022/04/21 09:56:35;;;;;;;;;;;;;;;20.16;44.08;100904.09;5129876;27;1758;-59
2022/04/21 09:59:02;;;;;;;;;;;;;;;20.20;43.96;100912.16;5129189;27;2643;-59
2022/04/21 10:01:29;;;;;;;;;;;;;;;20.17;44.03;100916.34;5128923;27;2370;-58
2022/04/21 10:03:55;;;;;;;;;;;;;;;20.21;43.99;100922.28;5129106;27;2178;-59
2022/04/21 10:06:22;;;;;;;;;;;;;;;20.21;44.09;100910.78;5123355;27;2581;-58
2022/04/21 10:08:49;;;;;;;;;;;;;;;20.15;44.39;100908.34;5129583;27;1732;-58
2022/04/21 10:11:24;;;;;;;;;;;;;;;20.15;44.34;100913.38;5110947;27;2548;-58
2022/04/21 10:13:57;;;;;;;;;;;;;;;20.18;44.26;100912.06;5126823;27;2595;-58
2022/04/21 10:16:24;;;;;;;;;;;;;;;20.18;44.28;100918.59;5125716;27;2537;-59
2022/04/21 10:18:54;;;;;;;;;;;;;;;20.19;44.21;100919.31;5127250;27;2035;-59
2022/04/21 10:21:37;;;;;;;;;;;;;;;20.19;44.18;100922.94;5110504;27;2541;-59
2022/04/21 10:24:04;;;;;;;;;;;;;;;20.18;44.02;100920.69;5126623;27;2862;-59
2022/04/21 10:26:35;;;;;;;;;;;;;;;20.17;44.00;100917.06;5128417;27;2311;-59
2022/04/21 10:29:11;;;;;;;;;;;;;;;20.17;44.28;100922.09;5124330;27;2652;-60
2022/04/21 10:31:45;;;;;;;;;;;;;;;20.18;44.17;100912.84;5110717;27;2509;-60
2022/04/21 10:34:25;;;;;;;;;;;;;;;20.18;44.12;100909.19;5105075;28;2676;-59
2022/04/21 10:37:03;;;;;;;;;;;;;;;20.21;44.17;100907.91;5101992;28;2585;-59
2022/04/21 10:39:30;;;;;;;;;;;;;;;20.19;44.01;100913.56;5105173;28;2569;-59
2022/04/21 10:42:17;;;;;;;;;;;;;;;20.19;43.97;100913.56;5103934;28;2636;-59
2022/04/21 10:44:45;;;;;;;;;;;;;;;20.19;44.02;100917.19;5107649;28;1892;-59
2022/04/21 10:47:36;;;;;;;;;;;;;;;20.20;43.96;100917.91;5107721;28;2596;-59
2022/04/21 10:50:10;;;;;;;;;;;;;;;20.19;43.90;100910.69;5108543;28;2517;-59
2022/04/21 10:57:53;;;;;;;;;;;;;;;20.20;43.83;100903.53;5106005;28;2500;-59
2022/04/21 11:00:23;;;;;;;;;;;;;;;20.19;43.69;100913.56;5107163;28;2446;-59
2022/04/21 11:02:50;;;;;;;;;;;;;;;20.19;43.77;100919.31;5106748;28;2650;-59
2022/04/21 11:05:23;;;;;;;;;;;;;;;20.18;43.65;100918.59;5105181;28;1654;-58
2022/04/21 11:07:50;;;;;;;;;;;;;;;20.19;43.68;100919.31;5101295;28;2648;-59
2022/04/21 11:10:25;;;;;;;;;;;;;;;20.19;43.68;100919.31;5103782;28;2380;-59
2022/04/21 11:12:51;;;;;;;;;;;;;;;20.20;43.61;100920.78;5106142;28;2648;-58
2022/04/21 11:15:37;;;;;;;;;;;;;;;20.21;43.64;100916.53;5104964;28;2552;-59
2022/04/21 11:18:08;;;;;;;;;;;;;;;20.20;43.56;100906.41;5106543;28;2509;-59
2022/04/21 11:20:34;;;;;;;;;;;;;;;20.24;43.51;100909.50;5107776;28;1771;-59
2022/04/21 11:23:00;;;;;;;;;;;;;;;20.24;43.51;100909.50;5105244;28;2613;-59
2022/04/21 11:25:31;;;;;;;;;;;;;;;20.24;43.44;100909.50;5107873;28;2629;-59
2022/04/21 11:27:57;;;;;;;;;;;;;;;20.25;43.57;100908.13;5106175;28;2474;-58
2022/04/21 11:30:24;;;;;;;;;;;;;;;20.23;43.44;100903.00;5102599;28;2448;-59
2022/04/21 11:32:51;;;;;;;;;;;;;;;20.24;43.37;100918.13;5106210;28;1665;-59
2022/04/21 11:35:17;;;;;;;;;;;;;;;20.25;43.49;100911.00;5105081;28;2529;-59
2022/04/21 11:37:47;;;;;;;;;;;;;;;20.24;43.41;100898.00;5106737;28;2408;-59
2022/04/21 11:40:23;;;;;;;;;;;;;;;20.23;43.52;100902.25;5105130;28;2556;-59
2022/04/21 11:42:49;;;;;;;;;;;;;;;20.24;43.46;100910.22;5103566;28;2530;-59
2022/04/21 11:45:19;;;;;;;;;;;;;;;20.24;43.47;100903.75;5105708;28;2432;-59
2022/04/21 11:47:45;;;;;;;;;;;;;;;20.22;43.46;100895.00;5104411;28;2603;-59
2022/04/21 11:50:17;;;;;;;;;;;;;;;20.23;43.51;100905.88;5105049;28;2523;-58
2022/04/21 11:52:47;;;;;;;;;;;;;;;20.23;43.46;100902.25;5105266;28;2532;-59
2022/04/21 11:55:15;;;;;;;;;;;;;;;20.21;43.55;100899.28;5105495;28;1942;-59
2022/04/21 11:57:42;;;;;;;;;;;;;;;20.20;43.53;100904.31;5106869;28;2245;-59
2022/04/21 12:00:08;;;;;;;;;;;;;;;20.19;43.44;100890.56;5104516;28;2533;-59
2022/04/21 12:08:08;;;;;;;;;;;;;;;20.16;43.63;100895.47;5107056;28;2486;-59
2022/04/21 12:10:35;;;;;;;;;;;;;;;20.17;43.63;100896.22;5104905;28;2533;-59
2022/04/21 12:13:02;;;;;;;;;;;;;;;20.16;43.60;100892.59;5104421;28;1692;-59
2022/04/21 12:15:29;;;;;;;;;;;;;;;20.16;43.71;100894.72;5104302;28;2407;-59
2022/04/21 12:18:01;;;;;;;;;;;;;;;20.17;43.69;100893.34;5105880;28;2651;-59
2022/04/21 12:20:28;;;;;;;;;;;;;;;20.18;43.66;100894.81;5105630;28;2454;-58
2022/04/21 12:22:54;;;;;;;;;;;;;;;20.16;43.68;100898.34;5106643;28;2477;-59
2022/04/21 12:25:30;;;;;;;;;;;;;;;20.16;43.63;100897.59;5105630;28;1752;-59
2022/04/21 12:28:03;;;;;;;;;;;;;;;20.16;43.72;100883.97;5105879;28;2517;-59
2022/04/21 12:30:29;;;;;;;;;;;;;;;20.17;43.63;100887.59;5109608;28;2589;-59
2022/04/21 12:32:56;;;;;;;;;;;;;;;20.16;43.66;100883.22;5126373;28;2403;-59
2022/04/21 12:35:43;;;;;;;;;;;;;;;20.19;43.59;100893.44;5125358;28;2560;-59
2022/04/21 12:40:55;;;;;;;;;;;;;;;20.17;43.63;100887.59;5112271;28;2159;-59
2022/04/21 12:43:22;;;;;;;;;;;;;;;20.18;43.65;100883.31;5108300;28;1627;-58
2022/04/21 12:45:49;;;;;;;;;;;;;;;20.17;43.66;100887.59;5125969;28;2689;-59
2022/04/21 12:48:23;;;;;;;;;;;;;;;20.17;43.45;100887.59;5125559;28;2548;-58
2022/04/21 12:50:49;;;;;;;;;;;;;;;20.17;43.57;100887.59;5124611;28;2507;-59
2022/04/21 12:53:29;;;;;;;;;;;;;;;20.17;43.69;100887.59;5125276;28;2589;-58
2022/04/21 12:55:55;;;;;;;;;;;;;;;20.16;43.63;100886.84;5126320;28;1553;-58
2022/04/21 12:58:29;;;;;;;;;;;;;;;20.17;43.68;100882.56;5126045;27;2563;-59
2022/04/21 13:00:56;;;;;;;;;;;;;;;20.17;43.60;100887.59;5129893;27;2538;-59
2022/04/21 13:03:24;;;;;;;;;;;;;;;20.17;43.63;100881.84;5130166;27;2402;-59
2022/04/21 13:05:51;;;;;;;;;;;;;;;20.17;43.63;100881.84;5126556;27;2554;-59
2022/04/21 13:08:17;;;;;;;;;;;;;;;20.18;43.62;100883.31;5130306;27;2207;-59
2022/04/21 13:10:44;;;;;;;;;;;;;;;20.18;43.54;100886.19;5130270;27;2540;-58
2022/04/21 13:13:10;;;;;;;;;;;;;;;20.18;43.61;100889.06;5128301;27;2584;-59
2022/04/21 13:15:37;;;;;;;;;;;;;;;20.17;43.55;100882.56;5129870;27;1929;-58
2022/04/21 13:18:03;;;;;;;;;;;;;;;20.17;43.62;100876.81;5128925;27;2753;-59
2022/04/21 13:23:14;;;;;;;;;;;;;;;20.19;43.52;100879.06;5129907;27;2264;-58
2022/04/21 13:25:42;;;;;;;;;;;;;;;20.18;43.53;100884.06;5128288;27;2572;-59
2022/04/21 13:28:08;;;;;;;;;;;;;;;20.18;43.30;100878.31;5129328;27;2911;-59
2022/04/21 13:30:35;;;;;;;;;;;;;;;20.17;43.61;100894.06;5129017;27;2552;-59
2022/04/21 13:35:47;;;;;;;;;;;;;;;20.17;43.46;100881.84;5126629;27;2722;-59
2022/04/21 13:38:16;;;;;;;;;;;;;;;20.18;43.53;100889.06;5129811;27;2921;-58
2022/04/21 13:40:43;;;;;;;;;;;;;;;20.18;43.43;100889.06;5129845;27;1738;-59
2022/04/21 13:43:10;;;;;;;;;;;;;;;20.19;43.44;100884.81;5129563;27;2578;-59
2022/04/21 13:45:56;;;;;;;;;;;;;;;20.17;43.45;100887.59;5128486;27;2763;-59
2022/04/21 13:48:24;;;;;;;;;;;;;;;20.17;43.39;100887.59;5128030;27;2814;-58